M/V MiSS Lillie — WDH5807 — position and weather

sailwx.info

Track history (hours):
 
Tides and Currents Weather Stations Pressure Air Temp Water Temp Dewpoint Dewpoint Depression Visibility Wind Speed Wind Dir Waves Ship Positions

M/V MiSS Lillie

Owner: Louisiana Marine Operators LLC., Broussard, LA. More information available from US FCC via Universal Licensing System and Coast Guard Vessel Documentation Center.

Last reported at 2017-Sep-15 07:24 UTC. Time now 2017-Sep-20 02:01 UTC.
Position N 29°33' W 090°24'.

Length 24 m; draft 3 m.

Type: Towing. MMSI: 367631680.

Date/timePositionNaut miles runAvg speedWind from/ knotsBaromVisibWave heightAir tempDewpointWater temp
2017-Sep-15 07:24N 29°33' W 090°24'2 4.8
2017-Sep-15 07:00N 29°33' W 090°26'0 0.3
2017-Sep-15 06:30N 29°33' W 090°26'0 0.0
2017-Sep-15 05:50N 29°33' W 090°26'1 3.3
2017-Sep-15 05:29N 29°33' W 090°27'3 5.7
2017-Sep-15 05:00N 29°34' W 090°31'3 5.7
2017-Sep-15 04:30N 29°34' W 090°34'3 5.3
2017-Sep-15 04:00N 29°35' W 090°37'2 4.9
2017-Sep-15 03:30N 29°36' W 090°39'2 4.4
2017-Sep-15 03:00N 29°37' W 090°42'2 4.0
2017-Sep-15 02:30N 29°35' W 090°43'2 4.4
2017-Sep-15 02:01N 29°34' W 090°45'2 3.1
2017-Sep-15 01:30N 29°32' W 090°46'3 7.0
2017-Sep-15 01:00N 29°32' W 090°50'3 6.9
2017-Sep-15 00:30N 29°33' W 090°54'  
2017-Sep-10 23:43N 29°50' W 091°60'1 5.5
2017-Sep-10 23:28N 29°49' W 092°01'3 5.6
2017-Sep-10 23:01N 29°48' W 092°04'2 3.9
2017-Sep-10 22:31N 29°48' W 092°06'2 3.7
2017-Sep-10 22:01N 29°47' W 092°08'3 5.5
2017-Sep-10 21:31N 29°47' W 092°11'3 5.4
2017-Sep-10 21:01N 29°48' W 092°14'1 1.5
2017-Sep-10 20:31N 29°48' W 092°15'0 0.1
2017-Sep-10 20:01N 29°48' W 092°15'0 0.0
2017-Sep-10 19:31N 29°48' W 092°15'2 4.4
2017-Sep-10 19:01N 29°49' W 092°17'3 5.0
2017-Sep-10 18:30N 29°50' W 092°19'34 3.9
2017-Sep-10 09:52N 29°56' W 092°58'3 5.3
2017-Sep-10 09:22N 29°56' W 093°01'2 5.2
2017-Sep-10 08:59N 29°56' W 093°04'3 5.3
2017-Sep-10 08:30N 29°56' W 093°07'1 1.9
2017-Sep-10 07:58N 29°56' W 093°08'2 3.8
2017-Sep-10 07:30N 29°56' W 093°10'3 5.3
2017-Sep-10 07:00N 29°58' W 093°12'1 2.9
2017-Sep-10 06:30N 29°59' W 093°13'3 5.2
2017-Sep-10 06:00N 30°02' W 093°14'0 0.7
2017-Sep-10 05:29N 30°02' W 093°15'0 0.0
2017-Sep-10 05:00N 30°02' W 093°15'1 1.2
2017-Sep-10 04:30N 30°02' W 093°15'2 4.1
2017-Sep-10 04:00N 30°04' W 093°16'2 4.1
2017-Sep-10 03:30N 30°05' W 093°18'1 2.0
2017-Sep-10 03:00N 30°06' W 093°19'0 0.5
2017-Sep-10 02:30N 30°06' W 093°19'2 3.6
2017-Sep-10 02:00N 30°07' W 093°20'2 4.9
2017-Sep-10 01:30N 30°10' W 093°19'3 5.9
2017-Sep-10 01:00N 30°12' W 093°17'2 4.2
2017-Sep-10 00:30N 30°13' W 093°15'0 0.3
2017-Sep-10 00:00N 30°13' W 093°15'2 4.1
2017-Sep-09 23:30N 30°12' W 093°17'2 3.5
2017-Sep-09 23:00N 30°13' W 093°19'1 1.0
2017-Sep-09 22:30N 30°12' W 093°19'0 0.1
2017-Sep-09 22:01N 30°12' W 093°19'0 0.0
2017-Sep-09 21:30N 30°12' W 093°19'0 0.0
2017-Sep-09 21:00N 30°12' W 093°19'0 0.0
2017-Sep-09 20:30N 30°12' W 093°19'0 0.5
2017-Sep-09 20:00N 30°12' W 093°19'0 0.5
2017-Sep-09 19:30N 30°12' W 093°19'0 0.0
2017-Sep-09 19:00N 30°12' W 093°19'0 0.0
2017-Sep-09 18:30N 30°12' W 093°19'0 0.0
2017-Sep-09 18:00N 30°12' W 093°19'0 0.0
2017-Sep-09 17:30N 30°12' W 093°19'0 0.1
2017-Sep-09 17:00N 30°12' W 093°19'0 0.0
2017-Sep-09 16:30N 30°12' W 093°19'0 0.0
2017-Sep-09 16:00N 30°12' W 093°19'0 0.0
2017-Sep-09 15:30N 30°12' W 093°19'0 0.0
2017-Sep-09 15:00N 30°12' W 093°19'0 0.1
2017-Sep-09 14:29N 30°12' W 093°19'0 0.5
2017-Sep-09 13:58N 30°12' W 093°19'0 0.0
2017-Sep-09 13:13N 30°12' W 093°19'0 0.0
2017-Sep-09 13:00N 30°12' W 093°19'0 0.0
2017-Sep-09 12:30N 30°12' W 093°19'0 0.0
2017-Sep-09 12:00N 30°12' W 093°19'0 0.0
2017-Sep-09 11:29N 30°12' W 093°19'0 0.0
2017-Sep-09 10:57N 30°12' W 093°19'0 0.0
2017-Sep-09 10:26N 30°12' W 093°19'0 0.0
2017-Sep-09 09:58N 30°12' W 093°19'0 0.0
2017-Sep-09 09:30N 30°12' W 093°19'0 0.0
2017-Sep-09 08:58N 30°12' W 093°19'0 0.0
2017-Sep-09 08:30N 30°12' W 093°19'0 0.0
2017-Sep-09 07:59N 30°12' W 093°19'0 0.0
2017-Sep-09 07:30N 30°12' W 093°19'0 0.0
2017-Sep-09 07:00N 30°12' W 093°19'0 0.0
2017-Sep-09 06:30N 30°12' W 093°19'4 1.8
2017-Sep-09 04:29N 30°13' W 093°15'0 0.0
2017-Sep-09 03:50N 30°13' W 093°15'0 0.1
2017-Sep-09 03:10N 30°13' W 093°15'0 0.0
2017-Sep-09 03:00N 30°13' W 093°15'1 1.0
2017-Sep-09 02:22N 30°13' W 093°16'2 5.5
2017-Sep-09 02:00N 30°12' W 093°18'1 1.7
2017-Sep-09 01:21N 30°12' W 093°19'1 2.0
2017-Sep-09 01:00N 30°12' W 093°18'2 4.9
2017-Sep-09 00:30N 30°13' W 093°16'0 0.9
2017-Sep-09 00:00N 30°13' W 093°15'0 0.0
2017-Sep-08 23:17N 30°13' W 093°15'0 0.1
2017-Sep-08 23:00N 30°13' W 093°15'0 0.0
2017-Sep-08 22:30N 30°13' W 093°15'0 0.1
2017-Sep-08 22:00N 30°13' W 093°15'1 1.2
2017-Sep-08 21:30N 30°13' W 093°16'2 4.9
2017-Sep-08 21:01N 30°12' W 093°18'1 1.9
2017-Sep-08 20:30N 30°12' W 093°19'0 0.0
2017-Sep-08 20:00N 30°12' W 093°19'0 0.0
2017-Sep-08 19:30N 30°12' W 093°19'1 1.6
2017-Sep-08 19:00N 30°12' W 093°19'3 5.3
2017-Sep-08 18:31N 30°13' W 093°16'0 0.5
2017-Sep-08 18:00N 30°13' W 093°16'3 5.1
2017-Sep-08 17:31N 30°12' W 093°18'1 1.7
2017-Sep-08 17:01N 30°12' W 093°19'0 0.2
2017-Sep-08 16:31N 30°12' W 093°19'0 0.0
2017-Sep-08 16:01N 30°12' W 093°19'0 0.0
2017-Sep-08 15:30N 30°12' W 093°19'0 0.0
2017-Sep-08 15:01N 30°12' W 093°19'0 0.4
2017-Sep-08 14:30N 30°12' W 093°19'0 0.6
2017-Sep-08 14:00N 30°12' W 093°19'0 0.2
2017-Sep-08 13:30N 30°12' W 093°19'0 0.0
2017-Sep-08 13:01N 30°12' W 093°19'0 0.6
2017-Sep-08 12:31N 30°12' W 093°19'0 0.0
2017-Sep-08 12:01N 30°12' W 093°19'0 0.0
2017-Sep-08 11:31N 30°12' W 093°19'0 0.0
2017-Sep-08 09:54N 30°12' W 093°19'0 0.0
2017-Sep-08 08:49N 30°12' W 093°19'0 0.0
2017-Sep-08 08:18N 30°12' W 093°19'0 0.0
2017-Sep-08 07:55N 30°12' W 093°19'0 0.0
2017-Sep-08 07:31N 30°12' W 093°19'0 0.0
2017-Sep-08 06:43N 30°12' W 093°19'0 0.0
2017-Sep-08 06:16N 30°12' W 093°19'3 2.6
2017-Sep-08 04:57N 30°13' W 093°15'2 1.5
2017-Sep-08 03:53N 30°12' W 093°17'2 2.3
2017-Sep-08 03:06N 30°13' W 093°19'0 0.9
2017-Sep-08 02:38N 30°12' W 093°19'0 0.6
2017-Sep-08 02:17N 30°12' W 093°19'0 0.1
2017-Sep-08 02:00N 30°12' W 093°19'0 0.5
2017-Sep-08 01:31N 30°12' W 093°19'1 1.3
2017-Sep-08 01:01N 30°12' W 093°18'1 2.9
2017-Sep-08 00:30N 30°12' W 093°17'1 2.8
2017-Sep-08 00:01N 30°13' W 093°15'1 0.9
2017-Sep-07 23:27N 30°13' W 093°15'0 1.0
2017-Sep-07 23:01N 30°13' W 093°16'1 2.4
2017-Sep-07 22:31N 30°12' W 093°17'2 3.0
2017-Sep-07 22:01N 30°13' W 093°18'1 2.0
2017-Sep-07 21:31N 30°12' W 093°19'0 0.1
2017-Sep-07 21:01N 30°12' W 093°19'1 1.5
2017-Sep-07 20:30N 30°13' W 093°19'2 3.1
2017-Sep-07 20:00N 30°12' W 093°17'2 3.6
2017-Sep-07 19:31N 30°13' W 093°15'0 0.6
2017-Sep-07 19:01N 30°13' W 093°16'2 4.2
2017-Sep-07 18:30N 30°12' W 093°18'1 2.3
2017-Sep-07 18:01N 30°12' W 093°19'0 0.8
2017-Sep-07 17:31N 30°12' W 093°19'0 0.3
2017-Sep-07 17:01N 30°12' W 093°19'0 0.0
2017-Sep-07 16:31N 30°12' W 093°19'0 0.0
2017-Sep-07 16:01N 30°12' W 093°19'0 0.3
2017-Sep-07 15:30N 30°12' W 093°19'0 0.1
2017-Sep-07 15:01N 30°12' W 093°19'0 0.6
2017-Sep-07 14:30N 30°12' W 093°19'1 0.4
2017-Sep-07 13:15N 30°13' W 093°19'3 2.6
2017-Sep-07 12:08N 30°13' W 093°16'0 2.1
2017-Sep-07 11:59N 30°13' W 093°15'1 2.1
2017-Sep-07 11:30N 30°12' W 093°16'2 3.7
2017-Sep-07 11:01N 30°12' W 093°19'1 1.0
2017-Sep-07 10:29N 30°12' W 093°19'1 1.5
2017-Sep-07 10:00N 30°12' W 093°18'2 3.8
2017-Sep-07 09:30N 30°12' W 093°16'0 0.7
2017-Sep-07 09:01N 30°12' W 093°16'2 4.9
2017-Sep-07 08:30N 30°13' W 093°19'1 1.7
2017-Sep-07 08:01N 30°12' W 093°19'1 1.1
2017-Sep-07 07:30N 30°13' W 093°19'1 2.4
2017-Sep-07 07:01N 30°12' W 093°18'2 4.2
2017-Sep-07 06:31N 30°13' W 093°15'0 0.1
2017-Sep-07 06:00N 30°13' W 093°15'1 1.1
2017-Sep-07 05:31N 30°12' W 093°16'3 5.8
2017-Sep-07 05:01N 30°11' W 093°19'3 4.9
2017-Sep-07 04:30N 30°09' W 093°20'2 5.0
2017-Sep-07 04:01N 30°06' W 093°20'1 1.3
2017-Sep-07 03:31N 30°06' W 093°19'0 0.2
2017-Sep-07 03:01N 30°06' W 093°19'0 0.3
2017-Sep-07 02:31N 30°06' W 093°19'1 1.8
2017-Sep-07 02:01N 30°06' W 093°18'2 3.4
2017-Sep-07 01:31N 30°05' W 093°17'1 2.5
2017-Sep-07 01:01N 30°03' W 093°16'0 0.0
2017-Sep-07 00:31N 30°03' W 093°16'0 0.1
2017-Sep-07 00:00N 30°03' W 093°16'0 0.0
2017-Sep-06 23:30N 30°03' W 093°16'0 0.0
2017-Sep-06 23:01N 30°03' W 093°16'0 0.0
2017-Sep-06 22:31N 30°03' W 093°16'0 0.0
2017-Sep-06 22:01N 30°03' W 093°16'0 0.0
2017-Sep-06 21:31N 30°03' W 093°16'0 0.0
2017-Sep-06 21:01N 30°03' W 093°16'0 0.0
2017-Sep-06 20:31N 30°03' W 093°16'0 0.0
2017-Sep-06 20:01N 30°03' W 093°16'0 0.0
2017-Sep-06 19:31N 30°03' W 093°16'0 0.0
2017-Sep-06 19:01N 30°03' W 093°16'0 0.0
2017-Sep-06 18:31N 30°03' W 093°16'0 0.1
2017-Sep-06 18:01N 30°03' W 093°16'1 2.1
2017-Sep-06 17:31N 30°02' W 093°16'2 4.3
2017-Sep-06 17:00N 30°01' W 093°14'2 3.9
2017-Sep-06 16:30N 29°59' W 093°13'2 3.9
2017-Sep-06 16:00N 29°58' W 093°11'2 4.2
2017-Sep-06 15:31N 29°56' W 093°10'42 3.6
2017-Sep-06 03:38N 29°51' W 092°21'0 3.2
2017-Sep-06 03:30N 29°51' W 092°21'2 3.5
2017-Sep-06 03:01N 29°50' W 092°19'2 3.3
2017-Sep-06 02:31N 29°49' W 092°17'2 3.4
2017-Sep-06 02:01N 29°48' W 092°16'2 3.3
2017-Sep-06 01:31N 29°48' W 092°14'1 2.9
2017-Sep-06 01:01N 29°47' W 092°12'1 2.1
2017-Sep-06 00:31N 29°47' W 092°11'2 3.6
2017-Sep-06 00:01N 29°47' W 092°09'2 3.9
2017-Sep-05 23:31N 29°47' W 092°07'2 3.9
2017-Sep-05 23:01N 29°48' W 092°05'2 3.8
2017-Sep-05 22:31N 29°49' W 092°03'2 4.1
2017-Sep-05 22:00N 29°50' W 092°01'  
Track history (hours):
 
Tides and Currents Weather Stations Pressure Air Temp Water Temp Dewpoint Dewpoint Depression Visibility Wind Speed Wind Dir Waves Ship Positions

M/V MiSS Lillie

Owner: Louisiana Marine Operators LLC., Broussard, LA. More information available from US FCC via Universal Licensing System and Coast Guard Vessel Documentation Center.

Last reported at 2017-Sep-15 07:24 UTC. Time now 2017-Sep-20 02:01 UTC.
Position N 29°33' W 090°24'.

Length 24 m; draft 3 m.

Type: Towing. MMSI: 367631680.

Date/timePositionNaut miles runAvg speedWind from/ knotsBaromVisibWave heightAir tempDewpointWater temp
2017-Sep-15 07:24N 29°33' W 090°24'2 4.8
2017-Sep-15 07:00N 29°33' W 090°26'0 0.3
2017-Sep-15 06:30N 29°33' W 090°26'0 0.0
2017-Sep-15 05:50N 29°33' W 090°26'1 3.3
2017-Sep-15 05:29N 29°33' W 090°27'3 5.7
2017-Sep-15 05:00N 29°34' W 090°31'3 5.7
2017-Sep-15 04:30N 29°34' W 090°34'3 5.3
2017-Sep-15 04:00N 29°35' W 090°37'2 4.9
2017-Sep-15 03:30N 29°36' W 090°39'2 4.4
2017-Sep-15 03:00N 29°37' W 090°42'2 4.0
2017-Sep-15 02:30N 29°35' W 090°43'2 4.4
2017-Sep-15 02:01N 29°34' W 090°45'2 3.1
2017-Sep-15 01:30N 29°32' W 090°46'3 7.0
2017-Sep-15 01:00N 29°32' W 090°50'3 6.9
2017-Sep-15 00:30N 29°33' W 090°54'  
2017-Sep-10 23:43N 29°50' W 091°60'1 5.5
2017-Sep-10 23:28N 29°49' W 092°01'3 5.6
2017-Sep-10 23:01N 29°48' W 092°04'2 3.9
2017-Sep-10 22:31N 29°48' W 092°06'2 3.7
2017-Sep-10 22:01N 29°47' W 092°08'3 5.5
2017-Sep-10 21:31N 29°47' W 092°11'3 5.4
2017-Sep-10 21:01N 29°48' W 092°14'1 1.5
2017-Sep-10 20:31N 29°48' W 092°15'0 0.1
2017-Sep-10 20:01N 29°48' W 092°15'0 0.0
2017-Sep-10 19:31N 29°48' W 092°15'2 4.4
2017-Sep-10 19:01N 29°49' W 092°17'3 5.0
2017-Sep-10 18:30N 29°50' W 092°19'34 3.9
2017-Sep-10 09:52N 29°56' W 092°58'3 5.3
2017-Sep-10 09:22N 29°56' W 093°01'2 5.2
2017-Sep-10 08:59N 29°56' W 093°04'3 5.3
2017-Sep-10 08:30N 29°56' W 093°07'1 1.9
2017-Sep-10 07:58N 29°56' W 093°08'2 3.8
2017-Sep-10 07:30N 29°56' W 093°10'3 5.3
2017-Sep-10 07:00N 29°58' W 093°12'1 2.9
2017-Sep-10 06:30N 29°59' W 093°13'3 5.2
2017-Sep-10 06:00N 30°02' W 093°14'0 0.7
2017-Sep-10 05:29N 30°02' W 093°15'0 0.0
2017-Sep-10 05:00N 30°02' W 093°15'1 1.2
2017-Sep-10 04:30N 30°02' W 093°15'2 4.1
2017-Sep-10 04:00N 30°04' W 093°16'2 4.1
2017-Sep-10 03:30N 30°05' W 093°18'1 2.0
2017-Sep-10 03:00N 30°06' W 093°19'0 0.5
2017-Sep-10 02:30N 30°06' W 093°19'2 3.6
2017-Sep-10 02:00N 30°07' W 093°20'2 4.9
2017-Sep-10 01:30N 30°10' W 093°19'3 5.9
2017-Sep-10 01:00N 30°12' W 093°17'2 4.2
2017-Sep-10 00:30N 30°13' W 093°15'0 0.3
2017-Sep-10 00:00N 30°13' W 093°15'2 4.1
2017-Sep-09 23:30N 30°12' W 093°17'2 3.5
2017-Sep-09 23:00N 30°13' W 093°19'1 1.0
2017-Sep-09 22:30N 30°12' W 093°19'0 0.1
2017-Sep-09 22:01N 30°12' W 093°19'0 0.0
2017-Sep-09 21:30N 30°12' W 093°19'0 0.0
2017-Sep-09 21:00N 30°12' W 093°19'0 0.0
2017-Sep-09 20:30N 30°12' W 093°19'0 0.5
2017-Sep-09 20:00N 30°12' W 093°19'0 0.5
2017-Sep-09 19:30N 30°12' W 093°19'0 0.0
2017-Sep-09 19:00N 30°12' W 093°19'0 0.0
2017-Sep-09 18:30N 30°12' W 093°19'0 0.0
2017-Sep-09 18:00N 30°12' W 093°19'0 0.0
2017-Sep-09 17:30N 30°12' W 093°19'0 0.1
2017-Sep-09 17:00N 30°12' W 093°19'0 0.0
2017-Sep-09 16:30N 30°12' W 093°19'0 0.0
2017-Sep-09 16:00N 30°12' W 093°19'0 0.0
2017-Sep-09 15:30N 30°12' W 093°19'0 0.0
2017-Sep-09 15:00N 30°12' W 093°19'0 0.1
2017-Sep-09 14:29N 30°12' W 093°19'0 0.5
2017-Sep-09 13:58N 30°12' W 093°19'0 0.0
2017-Sep-09 13:13N 30°12' W 093°19'0 0.0
2017-Sep-09 13:00N 30°12' W 093°19'0 0.0
2017-Sep-09 12:30N 30°12' W 093°19'0 0.0
2017-Sep-09 12:00N 30°12' W 093°19'0 0.0
2017-Sep-09 11:29N 30°12' W 093°19'0 0.0
2017-Sep-09 10:57N 30°12' W 093°19'0 0.0
2017-Sep-09 10:26N 30°12' W 093°19'0 0.0
2017-Sep-09 09:58N 30°12' W 093°19'0 0.0
2017-Sep-09 09:30N 30°12' W 093°19'0 0.0
2017-Sep-09 08:58N 30°12' W 093°19'0 0.0
2017-Sep-09 08:30N 30°12' W 093°19'0 0.0
2017-Sep-09 07:59N 30°12' W 093°19'0 0.0
2017-Sep-09 07:30N 30°12' W 093°19'0 0.0
2017-Sep-09 07:00N 30°12' W 093°19'0 0.0
2017-Sep-09 06:30N 30°12' W 093°19'4 1.8
2017-Sep-09 04:29N 30°13' W 093°15'0 0.0
2017-Sep-09 03:50N 30°13' W 093°15'0 0.1
2017-Sep-09 03:10N 30°13' W 093°15'0 0.0
2017-Sep-09 03:00N 30°13' W 093°15'1 1.0
2017-Sep-09 02:22N 30°13' W 093°16'2 5.5
2017-Sep-09 02:00N 30°12' W 093°18'1 1.7
2017-Sep-09 01:21N 30°12' W 093°19'1 2.0
2017-Sep-09 01:00N 30°12' W 093°18'2 4.9
2017-Sep-09 00:30N 30°13' W 093°16'0 0.9
2017-Sep-09 00:00N 30°13' W 093°15'0 0.0
2017-Sep-08 23:17N 30°13' W 093°15'0 0.1
2017-Sep-08 23:00N 30°13' W 093°15'0 0.0
2017-Sep-08 22:30N 30°13' W 093°15'0 0.1
2017-Sep-08 22:00N 30°13' W 093°15'1 1.2
2017-Sep-08 21:30N 30°13' W 093°16'2 4.9
2017-Sep-08 21:01N 30°12' W 093°18'1 1.9
2017-Sep-08 20:30N 30°12' W 093°19'0 0.0
2017-Sep-08 20:00N 30°12' W 093°19'0 0.0
2017-Sep-08 19:30N 30°12' W 093°19'1 1.6
2017-Sep-08 19:00N 30°12' W 093°19'3 5.3
2017-Sep-08 18:31N 30°13' W 093°16'0 0.5
2017-Sep-08 18:00N 30°13' W 093°16'3 5.1
2017-Sep-08 17:31N 30°12' W 093°18'1 1.7
2017-Sep-08 17:01N 30°12' W 093°19'0 0.2
2017-Sep-08 16:31N 30°12' W 093°19'0 0.0
2017-Sep-08 16:01N 30°12' W 093°19'0 0.0
2017-Sep-08 15:30N 30°12' W 093°19'0 0.0
2017-Sep-08 15:01N 30°12' W 093°19'0 0.4
2017-Sep-08 14:30N 30°12' W 093°19'0 0.6
2017-Sep-08 14:00N 30°12' W 093°19'0 0.2
2017-Sep-08 13:30N 30°12' W 093°19'0 0.0
2017-Sep-08 13:01N 30°12' W 093°19'0 0.6
2017-Sep-08 12:31N 30°12' W 093°19'0 0.0
2017-Sep-08 12:01N 30°12' W 093°19'0 0.0
2017-Sep-08 11:31N 30°12' W 093°19'0 0.0
2017-Sep-08 09:54N 30°12' W 093°19'0 0.0
2017-Sep-08 08:49N 30°12' W 093°19'0 0.0
2017-Sep-08 08:18N 30°12' W 093°19'0 0.0
2017-Sep-08 07:55N 30°12' W 093°19'0 0.0
2017-Sep-08 07:31N 30°12' W 093°19'0 0.0
2017-Sep-08 06:43N 30°12' W 093°19'0 0.0
2017-Sep-08 06:16N 30°12' W 093°19'3 2.6
2017-Sep-08 04:57N 30°13' W 093°15'2 1.5
2017-Sep-08 03:53N 30°12' W 093°17'2 2.3
2017-Sep-08 03:06N 30°13' W 093°19'0 0.9
2017-Sep-08 02:38N 30°12' W 093°19'0 0.6
2017-Sep-08 02:17N 30°12' W 093°19'0 0.1
2017-Sep-08 02:00N 30°12' W 093°19'0 0.5
2017-Sep-08 01:31N 30°12' W 093°19'1 1.3
2017-Sep-08 01:01N 30°12' W 093°18'1 2.9
2017-Sep-08 00:30N 30°12' W 093°17'1 2.8
2017-Sep-08 00:01N 30°13' W 093°15'1 0.9
2017-Sep-07 23:27N 30°13' W 093°15'0 1.0
2017-Sep-07 23:01N 30°13' W 093°16'1 2.4
2017-Sep-07 22:31N 30°12' W 093°17'2 3.0
2017-Sep-07 22:01N 30°13' W 093°18'1 2.0
2017-Sep-07 21:31N 30°12' W 093°19'0 0.1
2017-Sep-07 21:01N 30°12' W 093°19'1 1.5
2017-Sep-07 20:30N 30°13' W 093°19'2 3.1
2017-Sep-07 20:00N 30°12' W 093°17'2 3.6
2017-Sep-07 19:31N 30°13' W 093°15'0 0.6
2017-Sep-07 19:01N 30°13' W 093°16'2 4.2
2017-Sep-07 18:30N 30°12' W 093°18'1 2.3
2017-Sep-07 18:01N 30°12' W 093°19'0 0.8
2017-Sep-07 17:31N 30°12' W 093°19'0 0.3
2017-Sep-07 17:01N 30°12' W 093°19'0 0.0
2017-Sep-07 16:31N 30°12' W 093°19'0 0.0
2017-Sep-07 16:01N 30°12' W 093°19'0 0.3
2017-Sep-07 15:30N 30°12' W 093°19'0 0.1
2017-Sep-07 15:01N 30°12' W 093°19'0 0.6
2017-Sep-07 14:30N 30°12' W 093°19'1 0.4
2017-Sep-07 13:15N 30°13' W 093°19'3 2.6
2017-Sep-07 12:08N 30°13' W 093°16'0 2.1
2017-Sep-07 11:59N 30°13' W 093°15'1 2.1
2017-Sep-07 11:30N 30°12' W 093°16'2 3.7
2017-Sep-07 11:01N 30°12' W 093°19'1 1.0
2017-Sep-07 10:29N 30°12' W 093°19'1 1.5
2017-Sep-07 10:00N 30°12' W 093°18'2 3.8
2017-Sep-07 09:30N 30°12' W 093°16'0 0.7
2017-Sep-07 09:01N 30°12' W 093°16'2 4.9
2017-Sep-07 08:30N 30°13' W 093°19'1 1.7
2017-Sep-07 08:01N 30°12' W 093°19'1 1.1
2017-Sep-07 07:30N 30°13' W 093°19'1 2.4
2017-Sep-07 07:01N 30°12' W 093°18'2 4.2
2017-Sep-07 06:31N 30°13' W 093°15'0 0.1
2017-Sep-07 06:00N 30°13' W 093°15'1 1.1
2017-Sep-07 05:31N 30°12' W 093°16'3 5.8
2017-Sep-07 05:01N 30°11' W 093°19'3 4.9
2017-Sep-07 04:30N 30°09' W 093°20'2 5.0
2017-Sep-07 04:01N 30°06' W 093°20'1 1.3
2017-Sep-07 03:31N 30°06' W 093°19'0 0.2
2017-Sep-07 03:01N 30°06' W 093°19'0 0.3
2017-Sep-07 02:31N 30°06' W 093°19'1 1.8
2017-Sep-07 02:01N 30°06' W 093°18'2 3.4
2017-Sep-07 01:31N 30°05' W 093°17'1 2.5
2017-Sep-07 01:01N 30°03' W 093°16'0 0.0
2017-Sep-07 00:31N 30°03' W 093°16'0 0.1
2017-Sep-07 00:00N 30°03' W 093°16'0 0.0
2017-Sep-06 23:30N 30°03' W 093°16'0 0.0
2017-Sep-06 23:01N 30°03' W 093°16'0 0.0
2017-Sep-06 22:31N 30°03' W 093°16'0 0.0
2017-Sep-06 22:01N 30°03' W 093°16'0 0.0
2017-Sep-06 21:31N 30°03' W 093°16'0 0.0
2017-Sep-06 21:01N 30°03' W 093°16'0 0.0
2017-Sep-06 20:31N 30°03' W 093°16'0 0.0
2017-Sep-06 20:01N 30°03' W 093°16'0 0.0
2017-Sep-06 19:31N 30°03' W 093°16'0 0.0
2017-Sep-06 19:01N 30°03' W 093°16'0 0.0
2017-Sep-06 18:31N 30°03' W 093°16'0 0.1
2017-Sep-06 18:01N 30°03' W 093°16'1 2.1
2017-Sep-06 17:31N 30°02' W 093°16'2 4.3
2017-Sep-06 17:00N 30°01' W 093°14'2 3.9
2017-Sep-06 16:30N 29°59' W 093°13'2 3.9
2017-Sep-06 16:00N 29°58' W 093°11'2 4.2
2017-Sep-06 15:31N 29°56' W 093°10'42 3.6
2017-Sep-06 03:38N 29°51' W 092°21'0 3.2
2017-Sep-06 03:30N 29°51' W 092°21'2 3.5
2017-Sep-06 03:01N 29°50' W 092°19'2 3.3
2017-Sep-06 02:31N 29°49' W 092°17'2 3.4
2017-Sep-06 02:01N 29°48' W 092°16'2 3.3
2017-Sep-06 01:31N 29°48' W 092°14'1 2.9
2017-Sep-06 01:01N 29°47' W 092°12'1 2.1
2017-Sep-06 00:31N 29°47' W 092°11'2 3.6
2017-Sep-06 00:01N 29°47' W 092°09'2 3.9
2017-Sep-05 23:31N 29°47' W 092°07'2 3.9
2017-Sep-05 23:01N 29°48' W 092°05'2 3.8
2017-Sep-05 22:31N 29°49' W 092°03'2 4.1
2017-Sep-05 22:00N 29°50' W 092°01'  

Dump ship's entire track history